Time;durP1;ratioP1;P1;durP2;ratioP2;P2;SDS_P1;SDS_P2;PMS_P1;PMS_P2;Temp;Humidity;BMP_temperature;BMP_pressure;BME280_temperature;BME280_humidity;BME280_pressure;Samples;Min_cycle;Max_cycle;Signal;HPM_P1;HPM_P2
2022/01/18 00:00:29;;;;;;;3.83;0.38;;;;;;;;;;5060189;28;20222;-88
2022/01/18 00:02:58;;;;;;;0.93;0.93;;;;;;;;;;5064517;28;20035;-86
2022/01/18 00:05:24;;;;;;;0.20;0.20;;;;;;;;;;5062287;28;20021;-86
2022/01/18 00:07:50;;;;;;;0.10;0.10;;;;;;;;;;5059324;28;20079;-86
2022/01/18 00:10:17;;;;;;;0.10;0.10;;;;;;;;;;5061633;28;20070;-86
2022/01/18 00:13:06;;;;;;;0.20;0.20;;;;;;;;;;5063629;28;20031;-86
2022/01/18 00:23:03;;;;;;;0.10;0.10;;;;;;;;;;5063310;28;20036;-84
2022/01/18 00:25:30;;;;;;;0.40;0.40;;;;;;;;;;5061681;28;20089;-83
2022/01/18 00:27:56;;;;;;;0.50;0.43;;;;;;;;;;5063897;28;20361;-84
2022/01/18 00:35:57;;;;;;;0.20;0.20;;;;;;;;;;5052870;28;20072;-84
2022/01/18 00:40:55;;;;;;;0.20;0.20;;;;;;;;;;5063850;28;20033;-84
2022/01/18 00:43:21;;;;;;;0.10;0.10;;;;;;;;;;5059928;28;20090;-84
2022/01/18 00:45:48;;;;;;;0.30;0.30;;;;;;;;;;5061245;28;20436;-83
2022/01/18 00:48:14;;;;;;;0.38;0.38;;;;;;;;;;5063463;28;20051;-81
2022/01/18 00:50:40;;;;;;;0.10;0.10;;;;;;;;;;5059373;28;20028;-83
2022/01/18 00:53:11;;;;;;;0.43;0.43;;;;;;;;;;5058184;28;20033;-83
2022/01/18 00:55:48;;;;;;;0.25;0.25;;;;;;;;;;5061468;28;20028;-83
2022/01/18 00:58:14;;;;;;;0.20;0.20;;;;;;;;;;5062593;28;20400;-87
2022/01/18 01:00:41;;;;;;;0.10;0.10;;;;;;;;;;5058162;28;20448;-86
2022/01/18 01:03:07;;;;;;;0.10;0.10;;;;;;;;;;5056206;28;20131;-86
2022/01/18 01:05:34;;;;;;;0.30;0.30;;;;;;;;;;5058901;28;20044;-86
2022/01/18 01:08:00;;;;;;;0.35;0.35;;;;;;;;;;5051985;28;20112;-86
2022/01/18 01:10:26;;;;;;;0.30;0.30;;;;;;;;;;5062678;28;20409;-86
2022/01/18 01:12:53;;;;;;;0.10;0.10;;;;;;;;;;5060601;28;20713;-86
2022/01/18 01:15:21;;;;;;;0.10;0.10;;;;;;;;;;5062465;28;20025;-83
2022/01/18 01:17:55;;;;;;;0.55;0.55;;;;;;;;;;5054549;28;20037;-83
2022/01/18 01:34:34;;;;;;;0.60;0.60;;;;;;;;;;5059295;28;20040;-87
2022/01/18 01:45:04;;;;;;;0.40;0.40;;;;;;;;;;5058194;28;20055;-87
2022/01/18 01:47:37;;;;;;;0.13;0.13;;;;;;;;;;5057458;28;20028;-86
2022/01/18 01:50:07;;;;;;;0.20;0.20;;;;;;;;;;5055650;28;20025;-87
2022/01/18 01:52:33;;;;;;;0.98;0.55;;;;;;;;;;5061251;28;20093;-86
2022/01/18 01:55:00;;;;;;;0.10;0.10;;;;;;;;;;5059900;28;20116;-87
2022/01/18 01:57:26;;;;;;;0.20;0.20;;;;;;;;;;5059999;28;20060;-87
2022/01/18 01:59:52;;;;;;;0.52;0.52;;;;;;;;;;5063267;28;20263;-86
2022/01/18 02:02:18;;;;;;;0.00;0.00;;;;;;;;;;5061426;28;20032;-87
2022/01/18 02:04:44;;;;;;;0.20;0.20;;;;;;;;;;5064210;28;20380;-88
2022/01/18 02:07:10;;;;;;;0.50;0.50;;;;;;;;;;5064107;28;20058;-88
2022/01/18 02:09:36;;;;;;;0.10;0.10;;;;;;;;;;5063948;28;20866;-87
2022/01/18 02:12:02;;;;;;;0.30;0.30;;;;;;;;;;5060043;28;20047;-88
2022/01/18 02:14:31;;;;;;;0.10;0.10;;;;;;;;;;5065747;28;20025;-85
2022/01/18 02:22:27;;;;;;;0.10;0.10;;;;;;;;;;5063980;28;20043;-85
2022/01/18 02:24:53;;;;;;;0.10;0.10;;;;;;;;;;5061187;28;20020;-86
2022/01/18 02:27:19;;;;;;;0.10;0.10;;;;;;;;;;5063773;28;20403;-86
2022/01/18 02:29:45;;;;;;;0.20;0.20;;;;;;;;;;5058678;28;20376;-88
2022/01/18 02:32:11;;;;;;;0.10;0.10;;;;;;;;;;5066778;28;20032;-88
2022/01/18 02:34:37;;;;;;;0.10;0.10;;;;;;;;;;5064389;28;20032;-88
2022/01/18 02:37:04;;;;;;;0.20;0.20;;;;;;;;;;5065724;28;20493;-88
2022/01/18 02:39:30;;;;;;;0.20;0.20;;;;;;;;;;5066930;28;20104;-87
2022/01/18 02:42:07;;;;;;;0.25;0.25;;;;;;;;;;5066920;28;20032;-87
2022/01/18 02:44:33;;;;;;;0.60;0.60;;;;;;;;;;5064586;28;20032;-88
2022/01/18 02:47:00;;;;;;;2.50;0.35;;;;;;;;;;5064677;28;20028;-88
2022/01/18 02:49:27;;;;;;;0.38;0.38;;;;;;;;;;5064380;28;20104;-87
2022/01/18 02:51:53;;;;;;;0.28;0.28;;;;;;;;;;5062576;28;20028;-86
2022/01/18 02:54:20;;;;;;;0.10;0.10;;;;;;;;;;5063647;28;20051;-88
2022/01/18 02:56:49;;;;;;;0.57;0.57;;;;;;;;;;5060113;28;20037;-87
2022/01/18 02:59:25;;;;;;;0.32;0.32;;;;;;;;;;5058105;28;20135;-85
2022/01/18 03:04:40;;;;;;;0.50;0.50;;;;;;;;;;5062169;28;20039;-86
2022/01/18 03:07:07;;;;;;;0.50;0.50;;;;;;;;;;5065450;28;20041;-88
2022/01/18 03:09:33;;;;;;;0.10;0.10;;;;;;;;;;5060128;28;20032;-85
2022/01/18 03:11:59;;;;;;;0.30;0.30;;;;;;;;;;5059403;28;20035;-85
2022/01/18 03:14:25;;;;;;;0.35;0.35;;;;;;;;;;5063876;28;20027;-85
2022/01/18 03:16:51;;;;;;;0.20;0.20;;;;;;;;;;5065571;28;20123;-84
2022/01/18 03:19:17;;;;;;;0.10;0.10;;;;;;;;;;5064584;28;20055;-84
2022/01/18 03:21:44;;;;;;;0.30;0.30;;;;;;;;;;5058069;28;20120;-84
2022/01/18 03:29:36;;;;;;;0.22;0.22;;;;;;;;;;5058041;28;20063;-87
2022/01/18 03:32:03;;;;;;;0.15;0.15;;;;;;;;;;5063778;28;20437;-87
2022/01/18 03:34:29;;;;;;;0.55;0.25;;;;;;;;;;5064136;28;20024;-88
2022/01/18 03:36:55;;;;;;;0.53;0.53;;;;;;;;;;5065642;28;20036;-88
2022/01/18 03:39:21;;;;;;;0.30;0.30;;;;;;;;;;5061827;28;20559;-86
2022/01/18 03:41:54;;;;;;;0.08;0.08;;;;;;;;;;5066070;28;20298;-86
2022/01/18 03:44:22;;;;;;;0.30;0.30;;;;;;;;;;5063538;28;20036;-86
2022/01/18 03:46:48;;;;;;;0.28;0.28;;;;;;;;;;5057924;28;20028;-87
2022/01/18 03:49:14;;;;;;;0.10;0.10;;;;;;;;;;5060532;28;20071;-86
2022/01/18 03:51:40;;;;;;;0.23;0.23;;;;;;;;;;5062382;28;20078;-86
2022/01/18 03:54:06;;;;;;;0.28;0.28;;;;;;;;;;5065138;28;20025;-86
2022/01/18 03:56:32;;;;;;;0.33;0.33;;;;;;;;;;5064783;28;20398;-86
2022/01/18 03:58:58;;;;;;;0.28;0.28;;;;;;;;;;5064768;28;20831;-86
2022/01/18 04:01:24;;;;;;;0.32;0.30;;;;;;;;;;5065057;28;20036;-87
2022/01/18 04:03:50;;;;;;;0.20;0.20;;;;;;;;;;5064853;28;20039;-87
2022/01/18 04:06:16;;;;;;;0.13;0.13;;;;;;;;;;5057955;28;20039;-87
2022/01/18 04:08:42;;;;;;;0.40;0.40;;;;;;;;;;5065492;28;20036;-88
2022/01/18 04:11:08;;;;;;;0.20;0.20;;;;;;;;;;5064484;28;20187;-86
2022/01/18 04:13:34;;;;;;;0.13;0.13;;;;;;;;;;5062789;28;20344;-87
2022/01/18 04:16:00;;;;;;;0.90;0.90;;;;;;;;;;5064511;28;20119;-86
2022/01/18 04:18:48;;;;;;;0.15;0.15;;;;;;;;;;5062932;28;20072;-85
2022/01/18 04:29:11;;;;;;;0.15;0.15;;;;;;;;;;5057989;28;20582;-84
2022/01/18 04:31:37;;;;;;;0.10;0.10;;;;;;;;;;5061430;28;20032;-84
2022/01/18 04:34:03;;;;;;;0.20;0.20;;;;;;;;;;5062815;28;20025;-83
2022/01/18 04:36:29;;;;;;;1.00;0.33;;;;;;;;;;5052261;28;20040;-83
2022/01/18 04:38:56;;;;;;;0.20;0.20;;;;;;;;;;5064101;28;20028;-84
2022/01/18 04:41:28;;;;;;;0.30;0.30;;;;;;;;;;5064358;28;20787;-84
2022/01/18 04:49:11;;;;;;;0.85;0.85;;;;;;;;;;5055882;28;20039;-88
2022/01/18 04:51:38;;;;;;;0.13;0.13;;;;;;;;;;5061281;28;20035;-87
2022/01/18 04:54:06;;;;;;;0.47;0.30;;;;;;;;;;5061644;28;20070;-85
2022/01/18 04:59:11;;;;;;;0.20;0.20;;;;;;;;;;5058603;28;20654;-85
2022/01/18 05:01:38;;;;;;;0.75;0.75;;;;;;;;;;5060018;28;20029;-85
2022/01/18 05:04:04;;;;;;;0.10;0.10;;;;;;;;;;5059980;28;20425;-84
2022/01/18 05:06:30;;;;;;;0.10;0.10;;;;;;;;;;5061501;28;20101;-85
2022/01/18 05:08:57;;;;;;;0.20;0.20;;;;;;;;;;5057009;28;20270;-84
2022/01/18 05:11:26;;;;;;;1.40;0.82;;;;;;;;;;5063875;28;20032;-85
2022/01/18 05:16:41;;;;;;;0.10;0.10;;;;;;;;;;5062627;28;20109;-85
2022/01/18 05:24:19;;;;;;;0.17;0.13;;;;;;;;;;5058129;28;20052;-87
2022/01/18 05:26:45;;;;;;;0.30;0.30;;;;;;;;;;5063879;28;20194;-87
2022/01/18 05:29:11;;;;;;;0.20;0.20;;;;;;;;;;5056646;28;20108;-86
2022/01/18 05:31:37;;;;;;;0.20;0.20;;;;;;;;;;5059396;28;20520;-86
2022/01/18 05:34:03;;;;;;;0.30;0.30;;;;;;;;;;5064811;28;20024;-86
2022/01/18 05:36:30;;;;;;;1.23;1.00;;;;;;;;;;5067669;28;20048;-86
2022/01/18 05:38:56;;;;;;;0.10;0.10;;;;;;;;;;5068479;28;20103;-89
2022/01/18 05:41:22;;;;;;;0.40;0.40;;;;;;;;;;5066653;28;20036;-87
2022/01/18 05:43:48;;;;;;;0.32;0.32;;;;;;;;;;5067778;28;20521;-90
2022/01/18 05:46:14;;;;;;;0.10;0.10;;;;;;;;;;5066902;28;20067;-89
2022/01/18 05:48:40;;;;;;;0.20;0.20;;;;;;;;;;5067091;28;20040;-88
2022/01/18 05:51:06;;;;;;;0.20;0.20;;;;;;;;;;5066976;28;20028;-89
2022/01/18 05:53:35;;;;;;;0.20;0.20;;;;;;;;;;5073034;28;20556;-88
2022/01/18 05:56:01;;;;;;;0.30;0.30;;;;;;;;;;5071198;28;20090;-89
2022/01/18 05:58:27;;;;;;;0.20;0.20;;;;;;;;;;5064296;28;20039;-82
2022/01/18 06:00:54;;;;;;;0.20;0.20;;;;;;;;;;5065169;28;20108;-89
2022/01/18 06:03:27;;;;;;;;;;;;;;;;;;5064769;28;20093;-90
2022/01/18 06:08:41;;;;;;;7.43;1.00;;;;;;;;;;5064860;28;20127;-86
2022/01/18 06:11:08;;;;;;;0.57;0.57;;;;;;;;;;5061024;28;20033;-83
2022/01/18 06:13:34;;;;;;;0.10;0.10;;;;;;;;;;5061963;28;20028;-83
2022/01/18 06:16:00;;;;;;;0.63;0.38;;;;;;;;;;5063723;28;20568;-88
2022/01/18 06:18:26;;;;;;;0.20;0.20;;;;;;;;;;5064796;28;20035;-90
2022/01/18 06:20:53;;;;;;;0.30;0.30;;;;;;;;;;5064109;28;20029;-87
2022/01/18 06:23:19;;;;;;;1.85;1.75;;;;;;;;;;5063120;28;20041;-91
2022/01/18 06:25:45;;;;;;;0.35;0.35;;;;;;;;;;5061079;28;20415;-84
2022/01/18 06:28:11;;;;;;;0.70;0.70;;;;;;;;;;5063838;28;20032;-84
2022/01/18 06:30:37;;;;;;;0.10;0.10;;;;;;;;;;5061390;28;20029;-82
2022/01/18 06:33:04;;;;;;;0.25;0.25;;;;;;;;;;5063086;28;20032;-82
2022/01/18 06:35:30;;;;;;;0.20;0.20;;;;;;;;;;5060701;28;20024;-84
2022/01/18 06:37:56;;;;;;;0.57;0.47;;;;;;;;;;5060886;28;20078;-83
2022/01/18 06:40:22;;;;;;;0.38;0.35;;;;;;;;;;5061960;28;20306;-86
2022/01/18 06:42:48;;;;;;;0.20;0.20;;;;;;;;;;5063967;28;20162;-86
2022/01/18 06:45:15;;;;;;;0.10;0.10;;;;;;;;;;5061182;28;20720;-87
2022/01/18 06:47:41;;;;;;;;;;;;;;;;;;5064839;28;20546;-87
2022/01/18 06:50:10;;;;;;;0.17;0.17;;;;;;;;;;5064394;28;19913;-87
2022/01/18 06:52:36;;;;;;;5.82;0.43;;;;;;;;;;5064321;28;20480;-87
2022/01/18 06:55:03;;;;;;;0.10;0.10;;;;;;;;;;5059011;28;20493;-87
2022/01/18 06:57:29;;;;;;;0.10;0.10;;;;;;;;;;5064142;28;20032;-88
2022/01/18 06:59:55;;;;;;;0.13;0.13;;;;;;;;;;5053419;28;20108;-87
2022/01/18 07:02:21;;;;;;;0.40;0.40;;;;;;;;;;5065663;28;20068;-90
2022/01/18 07:04:47;;;;;;;0.10;0.10;;;;;;;;;;5065868;28;20029;-87
2022/01/18 07:07:13;;;;;;;1.38;1.27;;;;;;;;;;5065615;28;20070;-86
2022/01/18 07:09:39;;;;;;;0.38;0.38;;;;;;;;;;5049822;28;20029;-87
2022/01/18 07:12:10;;;;;;;0.25;0.25;;;;;;;;;;5047581;28;20784;-88
2022/01/18 07:14:36;;;;;;;0.40;0.40;;;;;;;;;;5068699;28;20162;-88
2022/01/18 07:17:02;;;;;;;1.67;1.58;;;;;;;;;;5067904;28;20044;-87
2022/01/18 07:19:32;;;;;;;0.32;0.32;;;;;;;;;;5063126;28;20028;-86
2022/01/18 07:21:58;;;;;;;0.35;0.35;;;;;;;;;;5063818;28;20162;-87
2022/01/18 07:24:42;;;;;;;2.33;2.23;;;;;;;;;;5065335;28;20020;-87
2022/01/18 07:27:09;;;;;;;2.55;2.15;;;;;;;;;;5065273;28;20294;-86
2022/01/18 07:29:35;;;;;;;;;;;;;;;;;;5065674;28;20167;-86
2022/01/18 07:32:02;;;;;;;0.20;0.20;;;;;;;;;;5054014;28;19913;-87
2022/01/18 07:34:30;;;;;;;0.73;0.68;;;;;;;;;;5056119;28;20037;-85
2022/01/18 07:36:56;;;;;;;0.75;0.63;;;;;;;;;;5060768;28;20211;-86
2022/01/18 07:39:22;;;;;;;0.55;0.55;;;;;;;;;;5064352;28;20127;-87
2022/01/18 07:41:48;;;;;;;0.77;0.77;;;;;;;;;;5064967;28;20111;-87
2022/01/18 07:44:14;;;;;;;0.30;0.30;;;;;;;;;;5060093;28;20113;-84
2022/01/18 07:46:40;;;;;;;0.70;0.70;;;;;;;;;;5062795;28;20135;-84
2022/01/18 07:49:06;;;;;;;0.50;0.50;;;;;;;;;;5064991;28;20032;-84
2022/01/18 07:51:32;;;;;;;0.30;0.30;;;;;;;;;;5065142;28;20043;-84
2022/01/18 07:53:58;;;;;;;0.30;0.30;;;;;;;;;;5065318;28;20032;-84
2022/01/18 07:56:24;;;;;;;0.45;0.45;;;;;;;;;;5053362;28;20033;-84
2022/01/18 07:58:50;;;;;;;0.90;0.82;;;;;;;;;;5058153;28;20083;-84
2022/01/18 08:01:17;;;;;;;0.40;0.40;;;;;;;;;;5064245;28;20524;-84
2022/01/18 08:03:43;;;;;;;1.02;1.02;;;;;;;;;;5064494;28;20032;-85
2022/01/18 08:06:09;;;;;;;1.30;0.35;;;;;;;;;;5064918;28;20481;-84
2022/01/18 08:08:37;;;;;;;0.20;0.20;;;;;;;;;;5053190;28;20036;-85
2022/01/18 08:11:03;;;;;;;1.98;0.45;;;;;;;;;;5059709;28;20572;-85
2022/01/18 08:13:37;;;;;;;0.37;0.30;;;;;;;;;;5062014;28;20033;-84
2022/01/18 08:16:22;;;;;;;0.10;0.10;;;;;;;;;;5059634;28;20040;-84
2022/01/18 08:18:48;;;;;;;0.10;0.10;;;;;;;;;;5049266;28;20036;-84
2022/01/18 08:21:14;;;;;;;0.85;0.85;;;;;;;;;;5064116;28;20393;-85
2022/01/18 08:23:40;;;;;;;0.50;0.50;;;;;;;;;;5052292;28;20033;-84
2022/01/18 08:26:06;;;;;;;0.95;0.82;;;;;;;;;;5052476;28;20080;-85
2022/01/18 08:28:32;;;;;;;0.10;0.10;;;;;;;;;;5048358;28;20036;-85
2022/01/18 08:30:58;;;;;;;10.33;2.70;;;;;;;;;;5064035;28;20113;-85
2022/01/18 08:33:24;;;;;;;1.30;0.47;;;;;;;;;;5064383;28;20070;-85
2022/01/18 08:35:51;;;;;;;1.30;0.40;;;;;;;;;;5049242;28;20029;-85
2022/01/18 08:38:17;;;;;;;1.15;0.65;;;;;;;;;;5052708;28;20029;-85
2022/01/18 08:40:43;;;;;;;0.52;0.32;;;;;;;;;;5052604;28;20021;-85
2022/01/18 08:43:09;;;;;;;0.33;0.27;;;;;;;;;;5052189;28;20111;-85
2022/01/18 08:45:36;;;;;;;0.47;0.47;;;;;;;;;;5063831;28;20021;-85
2022/01/18 08:48:02;;;;;;;0.57;0.57;;;;;;;;;;5049290;28;20433;-84
2022/01/18 08:50:28;;;;;;;0.43;0.43;;;;;;;;;;5062495;28;20118;-85
2022/01/18 08:52:54;;;;;;;0.73;0.73;;;;;;;;;;5057680;28;20106;-85
2022/01/18 08:55:21;;;;;;;1.25;0.85;;;;;;;;;;5052220;28;20043;-85
2022/01/18 08:57:47;;;;;;;0.80;0.80;;;;;;;;;;5048365;28;20541;-84
2022/01/18 09:00:15;;;;;;;0.80;0.80;;;;;;;;;;5047535;28;20105;-85
2022/01/18 09:02:41;;;;;;;1.02;0.85;;;;;;;;;;5051999;28;20032;-84
2022/01/18 09:05:07;;;;;;;0.73;0.68;;;;;;;;;;5059740;28;20029;-85
2022/01/18 09:07:36;;;;;;;1.63;0.30;;;;;;;;;;5060669;28;20033;-85
2022/01/18 09:10:06;;;;;;;1.35;1.25;;;;;;;;;;5050763;28;20166;-85
2022/01/18 09:12:33;;;;;;;0.10;0.10;;;;;;;;;;5047286;28;20100;-85
2022/01/18 09:15:04;;;;;;;0.40;0.40;;;;;;;;;;5056042;28;20024;-85
2022/01/18 09:17:30;;;;;;;1.10;1.10;;;;;;;;;;5063102;28;20064;-85
2022/01/18 09:19:57;;;;;;;1.67;1.58;;;;;;;;;;5057107;28;20074;-85
2022/01/18 09:22:23;;;;;;;0.35;0.35;;;;;;;;;;5051466;28;20032;-85
2022/01/18 09:24:49;;;;;;;0.50;0.35;;;;;;;;;;5048227;28;20162;-85
2022/01/18 09:27:15;;;;;;;0.63;0.45;;;;;;;;;;5046989;28;20140;-85
2022/01/18 09:29:43;;;;;;;2.20;1.75;;;;;;;;;;5062505;28;20049;-84
2022/01/18 09:32:09;;;;;;;0.23;0.20;;;;;;;;;;5062835;28;20489;-85
2022/01/18 09:34:35;;;;;;;0.40;0.40;;;;;;;;;;5060026;28;20284;-85
2022/01/18 09:37:01;;;;;;;0.65;0.65;;;;;;;;;;5050070;28;20302;-85
2022/01/18 09:39:27;;;;;;;0.40;0.40;;;;;;;;;;5046867;28;20091;-85
2022/01/18 09:41:57;;;;;;;0.47;0.47;;;;;;;;;;5049652;28;20031;-85
2022/01/18 09:44:23;;;;;;;0.52;0.52;;;;;;;;;;5061010;28;20094;-85
2022/01/18 09:46:49;;;;;;;0.10;0.10;;;;;;;;;;5062883;28;20489;-85
2022/01/18 09:49:17;;;;;;;0.15;0.15;;;;;;;;;;5062725;28;20043;-85
2022/01/18 09:51:43;;;;;;;1.77;1.08;;;;;;;;;;5062701;28;20028;-85
2022/01/18 09:54:09;;;;;;;4.20;0.40;;;;;;;;;;5063193;28;20051;-85
2022/01/18 09:56:35;;;;;;;3.30;1.07;;;;;;;;;;5051315;28;20049;-85
2022/01/18 09:59:01;;;;;;;0.43;0.43;;;;;;;;;;5051346;28;20355;-85
2022/01/18 10:01:29;;;;;;;0.10;0.10;;;;;;;;;;5053267;28;20033;-85
2022/01/18 10:04:13;;;;;;;0.28;0.15;;;;;;;;;;5063314;28;20035;-86
2022/01/18 10:06:40;;;;;;;0.52;0.45;;;;;;;;;;5047380;28;20783;-85
2022/01/18 10:09:10;;;;;;;1.30;0.30;;;;;;;;;;5062584;28;20035;-85
2022/01/18 10:11:36;;;;;;;0.15;0.15;;;;;;;;;;5075318;28;20097;-85
2022/01/18 10:14:02;;;;;;;0.57;0.57;;;;;;;;;;5051609;28;20561;-85
2022/01/18 10:16:28;;;;;;;0.10;0.10;;;;;;;;;;5062102;28;20089;-85
2022/01/18 10:19:01;;;;;;;1.08;0.40;;;;;;;;;;5063439;28;20028;-86
2022/01/18 10:21:34;;;;;;;0.17;0.17;;;;;;;;;;5050406;28;20082;-86
2022/01/18 10:24:32;;;;;;;0.93;0.80;;;;;;;;;;5067157;28;20039;-85
2022/01/18 10:26:59;;;;;;;1.40;0.38;;;;;;;;;;5006416;28;20533;-85
2022/01/18 10:29:29;;;;;;;1.02;0.73;;;;;;;;;;5008106;28;20635;-85
2022/01/18 10:31:58;;;;;;;0.70;0.70;;;;;;;;;;5006885;28;20045;-85
2022/01/18 10:34:30;;;;;;;0.20;0.20;;;;;;;;;;5006723;28;20042;-85
2022/01/18 10:37:02;;;;;;;0.30;0.30;;;;;;;;;;5006931;28;20052;-85
2022/01/18 10:39:32;;;;;;;0.80;0.63;;;;;;;;;;5004930;28;20085;-85
2022/01/18 10:41:59;;;;;;;0.55;0.55;;;;;;;;;;5005459;28;20036;-84
2022/01/18 10:44:25;;;;;;;0.35;0.35;;;;;;;;;;5006847;28;20086;-85
2022/01/18 10:46:53;;;;;;;0.10;0.10;;;;;;;;;;5006783;28;20037;-86
2022/01/18 10:49:51;;;;;;;0.20;0.20;;;;;;;;;;5006782;28;20038;-84
2022/01/18 10:52:20;;;;;;;0.38;0.30;;;;;;;;;;4934854;29;20047;-84
2022/01/18 10:54:54;;;;;;;1.30;0.75;;;;;;;;;;4945022;29;20602;-84
2022/01/18 10:57:25;;;;;;;0.55;0.55;;;;;;;;;;4944734;29;20046;-85
2022/01/18 11:00:03;;;;;;;1.05;1.00;;;;;;;;;;4943380;29;20043;-85
2022/01/18 11:02:32;;;;;;;0.20;0.20;;;;;;;;;;4962235;28;20433;-84
2022/01/18 11:04:58;;;;;;;0.20;0.20;;;;;;;;;;4983081;28;20559;-85
2022/01/18 11:07:25;;;;;;;1.15;1.13;;;;;;;;;;4983525;28;20443;-85
2022/01/18 11:09:51;;;;;;;;;;;;;;;;;;4984214;28;20037;-84
2022/01/18 11:12:23;;;;;;;4.20;0.77;;;;;;;;;;4983507;28;19914;-85
2022/01/18 11:15:00;;;;;;;0.45;0.45;;;;;;;;;;4983810;28;20065;-84
2022/01/18 11:17:26;;;;;;;0.32;0.32;;;;;;;;;;4983145;28;20053;-85
2022/01/18 11:19:57;;;;;;;0.30;0.30;;;;;;;;;;4983127;28;20042;-85
2022/01/18 11:22:26;;;;;;;0.35;0.35;;;;;;;;;;4982907;28;20577;-84
2022/01/18 11:24:57;;;;;;;1.75;0.57;;;;;;;;;;4982906;28;20133;-84
2022/01/18 11:27:23;;;;;;;0.40;0.40;;;;;;;;;;5006876;28;20152;-84
2022/01/18 11:29:49;;;;;;;0.50;0.50;;;;;;;;;;5065174;28;20040;-85
2022/01/18 11:32:17;;;;;;;1.65;0.93;;;;;;;;;;5055932;28;20524;-85
2022/01/18 11:34:43;;;;;;;1.13;0.60;;;;;;;;;;5057341;28;20036;-85
2022/01/18 11:37:12;;;;;;;1.15;0.57;;;;;;;;;;5064607;28;20051;-84
2022/01/18 11:39:38;;;;;;;10.77;1.50;;;;;;;;;;5064348;28;20029;-85
2022/01/18 11:42:06;;;;;;;3.03;2.73;;;;;;;;;;5065181;28;20032;-85
2022/01/18 11:44:32;;;;;;;6.75;1.00;;;;;;;;;;5064350;28;20036;-85
2022/01/18 11:46:58;;;;;;;0.38;0.38;;;;;;;;;;5064260;28;20031;-84
2022/01/18 11:49:30;;;;;;;0.30;0.30;;;;;;;;;;5064615;28;20036;-85
2022/01/18 11:51:58;;;;;;;2.58;0.57;;;;;;;;;;5064623;28;20541;-85
2022/01/18 11:54:35;;;;;;;0.60;0.60;;;;;;;;;;5064895;28;20108;-85
2022/01/18 11:57:21;;;;;;;0.73;0.60;;;;;;;;;;5049571;28;20463;-85
2022/01/18 11:59:48;;;;;;;2.03;1.27;;;;;;;;;;5053374;28;20428;-85
2022/01/18 12:02:14;;;;;;;;;;;;;;;;;;5064845;28;20036;-85
2022/01/18 12:04:41;;;;;;;1.30;1.13;;;;;;;;;;5064385;28;20437;-85
2022/01/18 12:07:08;;;;;;;0.47;0.40;;;;;;;;;;5064561;28;20032;-85
2022/01/18 12:09:39;;;;;;;1.48;1.15;;;;;;;;;;5048357;28;20032;-85
2022/01/18 12:12:09;;;;;;;0.77;0.77;;;;;;;;;;5049711;28;20037;-84
2022/01/18 12:14:35;;;;;;;5.43;1.98;;;;;;;;;;5064213;28;20398;-85
2022/01/18 12:17:14;;;;;;;2.35;1.27;;;;;;;;;;5064042;28;20037;-85
2022/01/18 12:19:44;;;;;;;0.50;0.45;;;;;;;;;;5060567;28;20025;-85
2022/01/18 12:22:11;;;;;;;2.15;1.30;;;;;;;;;;5052462;28;20052;-85
2022/01/18 12:24:37;;;;;;;0.20;0.20;;;;;;;;;;5063985;28;20017;-85
2022/01/18 12:27:22;;;;;;;0.15;0.15;;;;;;;;;;5064647;28;20044;-85
2022/01/18 12:30:39;;;;;;;0.50;0.50;;;;;;;;;;5064052;28;20031;-85
2022/01/18 12:33:31;;;;;;;0.73;0.73;;;;;;;;;;5057235;28;20067;-85
2022/01/18 12:36:33;;;;;;;0.55;0.55;;;;;;;;;;5045887;28;20517;-85
2022/01/18 12:39:00;;;;;;;0.47;0.47;;;;;;;;;;5001810;28;20134;-85
2022/01/18 12:41:46;;;;;;;0.45;0.45;;;;;;;;;;4999839;28;20092;-85
2022/01/18 12:44:21;;;;;;;1.15;0.68;;;;;;;;;;4999959;28;20506;-85
2022/01/18 12:46:57;;;;;;;0.20;0.20;;;;;;;;;;4999788;28;20038;-86
2022/01/18 12:49:24;;;;;;;0.65;0.65;;;;;;;;;;5000070;28;20514;-85
2022/01/18 12:51:56;;;;;;;0.45;0.45;;;;;;;;;;5000562;28;20030;-84
2022/01/18 12:54:38;;;;;;;0.50;0.50;;;;;;;;;;5001249;28;20052;-85
2022/01/18 12:57:21;;;;;;;0.57;0.57;;;;;;;;;;5002230;28;20026;-85
2022/01/18 13:00:20;;;;;;;0.55;0.50;;;;;;;;;;5002280;28;20077;-85
2022/01/18 13:02:48;;;;;;;1.30;0.52;;;;;;;;;;4963494;28;20058;-84
2022/01/18 13:05:14;;;;;;;0.10;0.10;;;;;;;;;;4958628;28;20087;-85
2022/01/18 13:07:53;;;;;;;4.20;0.53;;;;;;;;;;4958291;28;20118;-85
2022/01/18 13:10:19;;;;;;;0.63;0.63;;;;;;;;;;4958255;28;20497;-84
2022/01/18 13:12:46;;;;;;;1.20;0.97;;;;;;;;;;4982614;28;20037;-85
2022/01/18 13:15:22;;;;;;;0.55;0.55;;;;;;;;;;5014028;28;20338;-84
2022/01/18 13:23:29;;;;;;;1.33;1.25;;;;;;;;;;5010285;28;20052;-84
2022/01/18 13:25:59;;;;;;;0.30;0.30;;;;;;;;;;5010362;28;20044;-84
2022/01/18 13:28:34;;;;;;;0.28;0.28;;;;;;;;;;5010423;28;20596;-85
2022/01/18 13:31:20;;;;;;;1.65;0.40;;;;;;;;;;5008159;28;20041;-84
2022/01/18 13:33:49;;;;;;;1.08;0.70;;;;;;;;;;5006521;28;20056;-84
2022/01/18 13:36:15;;;;;;;1.25;0.93;;;;;;;;;;5005428;28;20033;-84
2022/01/18 13:38:41;;;;;;;1.17;1.07;;;;;;;;;;5047965;28;20076;-84
2022/01/18 13:41:07;;;;;;;0.10;0.10;;;;;;;;;;5052375;28;20033;-84
2022/01/18 13:43:34;;;;;;;0.95;0.63;;;;;;;;;;5052525;28;20033;-84
2022/01/18 13:46:00;;;;;;;0.38;0.38;;;;;;;;;;5050373;28;20054;-84
2022/01/18 13:48:33;;;;;;;0.32;0.32;;;;;;;;;;5047581;28;20029;-85
2022/01/18 13:51:03;;;;;;;0.50;0.50;;;;;;;;;;5063926;28;20067;-84
2022/01/18 13:53:30;;;;;;;0.20;0.20;;;;;;;;;;5061979;28;20109;-84
2022/01/18 13:55:56;;;;;;;0.70;0.52;;;;;;;;;;5057554;28;20581;-84
2022/01/18 13:58:24;;;;;;;0.30;0.30;;;;;;;;;;5057227;28;20039;-84
2022/01/18 14:00:50;;;;;;;1.40;1.35;;;;;;;;;;5067508;28;20751;-84
2022/01/18 14:03:32;;;;;;;0.87;0.87;;;;;;;;;;5067713;28;20489;-84
2022/01/18 14:05:58;;;;;;;2.67;1.10;;;;;;;;;;5068076;28;20036;-84
2022/01/18 14:08:31;;;;;;;1.27;1.17;;;;;;;;;;5067385;28;20130;-85
2022/01/18 14:11:01;;;;;;;1.73;1.08;;;;;;;;;;5061519;28;20136;-85
2022/01/18 14:13:28;;;;;;;0.85;0.73;;;;;;;;;;5069436;28;20477;-84
2022/01/18 14:15:54;;;;;;;0.25;0.25;;;;;;;;;;5061761;28;20055;-85
2022/01/18 14:18:20;;;;;;;2.08;1.05;;;;;;;;;;5066980;28;20576;-84
2022/01/18 14:20:46;;;;;;;0.47;0.47;;;;;;;;;;5067539;28;20028;-84
2022/01/18 14:23:19;;;;;;;6.13;0.73;;;;;;;;;;5066869;28;20093;-84
2022/01/18 14:25:50;;;;;;;6.40;1.48;;;;;;;;;;5066713;28;20812;-84
2022/01/18 14:28:17;;;;;;;2.33;1.42;;;;;;;;;;5066466;28;20029;-84
2022/01/18 14:30:43;;;;;;;;;;;;;;;;;;5051688;28;20033;-84
2022/01/18 14:33:13;;;;;;;0.32;0.32;;;;;;;;;;5052005;28;19916;-85
2022/01/18 14:35:45;;;;;;;1.58;1.48;;;;;;;;;;5066564;28;20037;-84
2022/01/18 14:38:15;;;;;;;1.20;1.10;;;;;;;;;;5058614;28;20067;-84
2022/01/18 14:40:41;;;;;;;0.82;0.82;;;;;;;;;;5058596;28;20095;-84
2022/01/18 14:43:27;;;;;;;0.27;0.27;;;;;;;;;;5066045;28;20043;-84
2022/01/18 14:46:07;;;;;;;0.63;0.63;;;;;;;;;;5051896;28;20139;-84
2022/01/18 14:48:34;;;;;;;0.45;0.43;;;;;;;;;;5066067;28;20039;-84
2022/01/18 14:51:01;;;;;;;0.80;0.75;;;;;;;;;;5066105;28;20040;-84
2022/01/18 14:53:27;;;;;;;0.30;0.30;;;;;;;;;;5055853;28;20033;-84
2022/01/18 14:55:54;;;;;;;0.43;0.43;;;;;;;;;;5059986;28;20028;-84
2022/01/18 14:58:20;;;;;;;;;;;;;;;;;;5066165;28;20626;-84
2022/01/18 15:00:47;;;;;;;0.68;0.50;;;;;;;;;;5065886;28;20011;-84
2022/01/18 15:03:13;;;;;;;0.88;0.77;;;;;;;;;;5066373;28;20036;-84
2022/01/18 15:05:39;;;;;;;1.37;0.83;;;;;;;;;;5065520;28;20032;-84
2022/01/18 15:08:06;;;;;;;0.67;0.67;;;;;;;;;;5065989;28;20289;-84
2022/01/18 15:10:32;;;;;;;0.98;0.98;;;;;;;;;;5065742;28;20059;-84
2022/01/18 15:12:58;;;;;;;0.38;0.38;;;;;;;;;;5065911;28;20089;-84
2022/01/18 15:15:27;;;;;;;0.37;0.37;;;;;;;;;;5065869;28;20696;-84
2022/01/18 15:17:53;;;;;;;0.57;0.57;;;;;;;;;;5050839;28;20048;-84
2022/01/18 15:20:20;;;;;;;0.50;0.50;;;;;;;;;;5063142;28;20027;-84
2022/01/18 15:22:46;;;;;;;0.22;0.22;;;;;;;;;;5044252;28;20025;-84
2022/01/18 15:25:13;;;;;;;0.88;0.88;;;;;;;;;;5054219;28;20064;-84
2022/01/18 15:27:39;;;;;;;0.20;0.20;;;;;;;;;;5049078;28;20465;-84
2022/01/18 15:30:08;;;;;;;0.10;0.10;;;;;;;;;;5065942;28;20032;-84
2022/01/18 15:32:35;;;;;;;0.77;0.35;;;;;;;;;;5054470;28;20040;-84
2022/01/18 15:35:01;;;;;;;2.22;1.17;;;;;;;;;;5072292;28;20033;-84
2022/01/18 15:37:27;;;;;;;1.20;0.70;;;;;;;;;;5053741;28;20040;-84
2022/01/18 15:39:54;;;;;;;1.33;0.60;;;;;;;;;;5051240;28;20267;-84
2022/01/18 15:42:21;;;;;;;0.50;0.50;;;;;;;;;;5049241;28;20060;-84
2022/01/18 15:44:47;;;;;;;0.57;0.57;;;;;;;;;;5065392;28;20020;-84
2022/01/18 15:47:14;;;;;;;0.35;0.35;;;;;;;;;;5064959;28;20037;-84
2022/01/18 15:49:40;;;;;;;2.33;1.35;;;;;;;;;;5061457;28;20029;-84
2022/01/18 15:52:07;;;;;;;4.38;0.68;;;;;;;;;;5052545;28;20028;-84
2022/01/18 15:54:33;;;;;;;0.30;0.30;;;;;;;;;;5065009;28;20041;-84
2022/01/18 15:56:59;;;;;;;0.40;0.40;;;;;;;;;;5050794;28;20041;-84
2022/01/18 15:59:26;;;;;;;0.20;0.20;;;;;;;;;;5062588;28;20028;-85
2022/01/18 16:01:52;;;;;;;0.38;0.38;;;;;;;;;;5059236;28;20124;-84
2022/01/18 16:04:18;;;;;;;5.65;2.45;;;;;;;;;;5053236;28;20079;-84
2022/01/18 16:06:44;;;;;;;1.70;0.70;;;;;;;;;;5062745;28;20110;-84
2022/01/18 16:09:10;;;;;;;0.20;0.20;;;;;;;;;;5048999;28;20138;-84
2022/01/18 16:11:36;;;;;;;0.10;0.10;;;;;;;;;;5052710;28;20036;-84
2022/01/18 16:14:02;;;;;;;0.30;0.30;;;;;;;;;;5056658;28;20032;-78
2022/01/18 16:16:28;;;;;;;1.55;1.08;;;;;;;;;;5061918;28;20309;-78